sensor_id;sensor_type;location;lat;lon;timestamp;P1;durP1;ratioP1;P2;durP2;ratioP2
4001;SDS011;2015;48.670;9.060;2022-10-19T04:00:49;33.57;;;17.53;;
4001;SDS011;2015;48.670;9.060;2022-10-19T04:03:21;46.03;;;16.80;;
4001;SDS011;2015;48.670;9.060;2022-10-19T04:05:59;63.87;;;20.50;;
4001;SDS011;2015;48.670;9.060;2022-10-19T04:08:36;52.57;;;21.73;;
4001;SDS011;2015;48.670;9.060;2022-10-19T04:11:09;62.00;;;21.37;;
4001;SDS011;2015;48.670;9.060;2022-10-19T04:13:43;42.97;;;18.80;;
4001;SDS011;2015;48.670;9.060;2022-10-19T04:16:18;47.27;;;20.70;;
4001;SDS011;2015;48.670;9.060;2022-10-19T04:18:50;41.10;;;16.63;;
4001;SDS011;2015;48.670;9.060;2022-10-19T04:21:29;54.67;;;17.87;;
4001;SDS011;2015;48.670;9.060;2022-10-19T04:24:06;30.40;;;14.67;;
4001;SDS011;2015;48.670;9.060;2022-10-19T04:26:41;40.00;;;13.30;;
4001;SDS011;2015;48.670;9.060;2022-10-19T04:29:15;39.00;;;16.00;;
4001;SDS011;2015;48.670;9.060;2022-10-19T04:31:49;35.83;;;16.20;;
4001;SDS011;2015;48.670;9.060;2022-10-19T04:34:22;36.53;;;14.43;;
4001;SDS011;2015;48.670;9.060;2022-10-19T04:36:55;31.53;;;13.40;;
4001;SDS011;2015;48.670;9.060;2022-10-19T04:39:29;19.07;;;11.50;;
4001;SDS011;2015;48.670;9.060;2022-10-19T04:42:01;20.93;;;11.10;;
4001;SDS011;2015;48.670;9.060;2022-10-19T04:44:33;29.67;;;11.27;;
4001;SDS011;2015;48.670;9.060;2022-10-19T04:47:04;16.80;;;10.10;;
4001;SDS011;2015;48.670;9.060;2022-10-19T04:49:36;21.70;;;11.33;;
4001;SDS011;2015;48.670;9.060;2022-10-19T04:52:08;20.03;;;11.80;;
4001;SDS011;2015;48.670;9.060;2022-10-19T04:54:40;33.87;;;14.17;;
4001;SDS011;2015;48.670;9.060;2022-10-19T04:57:11;28.47;;;14.40;;
4001;SDS011;2015;48.670;9.060;2022-10-19T04:59:43;27.93;;;14.40;;
4001;SDS011;2015;48.670;9.060;2022-10-19T05:02:16;27.37;;;14.23;;
4001;SDS011;2015;48.670;9.060;2022-10-19T05:04:48;24.77;;;12.80;;
4001;SDS011;2015;48.670;9.060;2022-10-19T05:07:20;30.27;;;12.80;;
4001;SDS011;2015;48.670;9.060;2022-10-19T05:09:52;24.17;;;12.40;;
4001;SDS011;2015;48.670;9.060;2022-10-19T05:12:23;19.80;;;12.80;;
4001;SDS011;2015;48.670;9.060;2022-10-19T05:14:55;23.90;;;12.07;;
4001;SDS011;2015;48.670;9.060;2022-10-19T05:17:30;27.73;;;13.13;;
4001;SDS011;2015;48.670;9.060;2022-10-19T05:20:03;22.80;;;13.57;;
4001;SDS011;2015;48.670;9.060;2022-10-19T05:22:36;46.80;;;19.10;;
4001;SDS011;2015;48.670;9.060;2022-10-19T05:25:08;35.67;;;17.07;;
4001;SDS011;2015;48.670;9.060;2022-10-19T05:27:40;48.13;;;19.53;;
4001;SDS011;2015;48.670;9.060;2022-10-19T05:30:12;49.95;;;22.02;;
4001;SDS011;2015;48.670;9.060;2022-10-19T05:32:44;44.97;;;20.23;;
4001;SDS011;2015;48.670;9.060;2022-10-19T05:35:16;56.57;;;22.47;;
4001;SDS011;2015;48.670;9.060;2022-10-19T05:37:53;48.17;;;21.53;;
4001;SDS011;2015;48.670;9.060;2022-10-19T05:40:25;59.10;;;21.70;;
4001;SDS011;2015;48.670;9.060;2022-10-19T05:42:57;57.67;;;24.70;;
4001;SDS011;2015;48.670;9.060;2022-10-19T05:45:29;56.40;;;22.60;;
4001;SDS011;2015;48.670;9.060;2022-10-19T05:48:01;48.00;;;19.10;;
4001;SDS011;2015;48.670;9.060;2022-10-19T05:50:32;58.50;;;22.70;;
4001;SDS011;2015;48.670;9.060;2022-10-19T05:53:04;53.30;;;19.70;;
4001;SDS011;2015;48.670;9.060;2022-10-19T05:55:36;41.90;;;19.23;;
4001;SDS011;2015;48.670;9.060;2022-10-19T05:58:07;39.37;;;18.43;;
4001;SDS011;2015;48.670;9.060;2022-10-19T06:00:39;49.70;;;18.23;;
4001;SDS011;2015;48.670;9.060;2022-10-19T06:03:11;39.20;;;18.23;;
4001;SDS011;2015;48.670;9.060;2022-10-19T06:05:43;38.90;;;17.67;;
4001;SDS011;2015;48.670;9.060;2022-10-19T06:08:15;39.93;;;17.93;;
4001;SDS011;2015;48.670;9.060;2022-10-19T06:10:47;40.33;;;18.30;;
4001;SDS011;2015;48.670;9.060;2022-10-19T06:13:20;34.00;;;17.03;;
4001;SDS011;2015;48.670;9.060;2022-10-19T06:15:52;46.43;;;20.80;;
4001;SDS011;2015;48.670;9.060;2022-10-19T06:18:23;42.27;;;21.23;;
4001;SDS011;2015;48.670;9.060;2022-10-19T06:20:56;46.23;;;20.70;;
4001;SDS011;2015;48.670;9.060;2022-10-19T06:23:35;45.63;;;19.37;;
4001;SDS011;2015;48.670;9.060;2022-10-19T06:26:09;47.47;;;17.00;;
4001;SDS011;2015;48.670;9.060;2022-10-19T06:28:42;33.50;;;15.37;;
4001;SDS011;2015;48.670;9.060;2022-10-19T06:31:14;39.40;;;17.10;;
4001;SDS011;2015;48.670;9.060;2022-10-19T06:33:47;37.63;;;15.87;;
4001;SDS011;2015;48.670;9.060;2022-10-19T06:36:21;35.90;;;16.90;;
4001;SDS011;2015;48.670;9.060;2022-10-19T06:38:54;39.83;;;17.37;;
4001;SDS011;2015;48.670;9.060;2022-10-19T06:41:32;42.47;;;17.27;;
4001;SDS011;2015;48.670;9.060;2022-10-19T06:44:04;35.23;;;14.50;;
4001;SDS011;2015;48.670;9.060;2022-10-19T06:46:37;47.20;;;17.43;;
4001;SDS011;2015;48.670;9.060;2022-10-19T06:49:12;46.67;;;18.67;;
4001;SDS011;2015;48.670;9.060;2022-10-19T06:51:44;54.30;;;17.77;;
4001;SDS011;2015;48.670;9.060;2022-10-19T06:54:16;41.20;;;17.20;;
4001;SDS011;2015;48.670;9.060;2022-10-19T06:56:47;39.67;;;16.97;;
4001;SDS011;2015;48.670;9.060;2022-10-19T06:59:19;44.57;;;18.93;;
4001;SDS011;2015;48.670;9.060;2022-10-19T07:01:51;40.93;;;17.43;;
4001;SDS011;2015;48.670;9.060;2022-10-19T07:04:22;51.00;;;17.57;;
4001;SDS011;2015;48.670;9.060;2022-10-19T07:06:54;44.90;;;18.00;;
4001;SDS011;2015;48.670;9.060;2022-10-19T07:09:26;48.47;;;19.40;;
4001;SDS011;2015;48.670;9.060;2022-10-19T07:11:58;46.50;;;19.10;;
4001;SDS011;2015;48.670;9.060;2022-10-19T07:14:29;36.50;;;16.80;;
4001;SDS011;2015;48.670;9.060;2022-10-19T07:17:01;40.17;;;18.70;;
4001;SDS011;2015;48.670;9.060;2022-10-19T07:19:33;39.73;;;17.53;;
4001;SDS011;2015;48.670;9.060;2022-10-19T07:22:05;38.17;;;17.47;;
4001;SDS011;2015;48.670;9.060;2022-10-19T07:24:36;35.43;;;17.03;;
4001;SDS011;2015;48.670;9.060;2022-10-19T07:27:08;36.30;;;18.20;;
4001;SDS011;2015;48.670;9.060;2022-10-19T07:29:40;31.40;;;16.10;;
4001;SDS011;2015;48.670;9.060;2022-10-19T07:32:12;37.83;;;19.95;;
4001;SDS011;2015;48.670;9.060;2022-10-19T07:34:44;30.73;;;15.13;;
4001;SDS011;2015;48.670;9.060;2022-10-19T07:37:15;28.87;;;16.87;;
4001;SDS011;2015;48.670;9.060;2022-10-19T07:39:47;26.03;;;15.87;;
4001;SDS011;2015;48.670;9.060;2022-10-19T07:42:19;25.47;;;16.03;;
4001;SDS011;2015;48.670;9.060;2022-10-19T07:44:50;23.90;;;15.47;;
4001;SDS011;2015;48.670;9.060;2022-10-19T07:47:22;24.80;;;14.27;;
4001;SDS011;2015;48.670;9.060;2022-10-19T07:49:54;23.57;;;14.60;;
4001;SDS011;2015;48.670;9.060;2022-10-19T07:52:26;24.53;;;14.00;;
4001;SDS011;2015;48.670;9.060;2022-10-19T07:55:01;22.43;;;14.30;;
4001;SDS011;2015;48.670;9.060;2022-10-19T07:57:32;25.70;;;13.50;;
4001;SDS011;2015;48.670;9.060;2022-10-19T08:00:04;22.77;;;15.98;;
4001;SDS011;2015;48.670;9.060;2022-10-19T08:02:37;25.63;;;14.83;;
4001;SDS011;2015;48.670;9.060;2022-10-19T08:05:30;20.07;;;15.07;;
4001;SDS011;2015;48.670;9.060;2022-10-19T08:08:03;27.53;;;13.63;;
4001;SDS011;2015;48.670;9.060;2022-10-19T08:10:35;18.13;;;12.10;;
4001;SDS011;2015;48.670;9.060;2022-10-19T08:13:07;23.03;;;14.40;;
4001;SDS011;2015;48.670;9.060;2022-10-19T08:15:39;16.20;;;12.10;;
4001;SDS011;2015;48.670;9.060;2022-10-19T08:18:10;15.10;;;12.20;;
4001;SDS011;2015;48.670;9.060;2022-10-19T08:20:42;16.43;;;12.00;;
4001;SDS011;2015;48.670;9.060;2022-10-19T08:23:14;21.93;;;11.70;;
4001;SDS011;2015;48.670;9.060;2022-10-19T08:25:46;14.73;;;12.00;;
4001;SDS011;2015;48.670;9.060;2022-10-19T08:28:19;16.20;;;11.27;;
4001;SDS011;2015;48.670;9.060;2022-10-19T08:30:50;18.60;;;11.87;;
4001;SDS011;2015;48.670;9.060;2022-10-19T08:33:28;14.10;;;11.77;;
4001;SDS011;2015;48.670;9.060;2022-10-19T08:36:02;16.87;;;11.73;;
4001;SDS011;2015;48.670;9.060;2022-10-19T08:38:36;25.23;;;12.10;;
4001;SDS011;2015;48.670;9.060;2022-10-19T08:43:55;17.90;;;10.80;;
4001;SDS011;2015;48.670;9.060;2022-10-19T08:46:59;16.87;;;11.83;;
4001;SDS011;2015;48.670;9.060;2022-10-19T08:49:43;20.50;;;12.50;;
4001;SDS011;2015;48.670;9.060;2022-10-19T08:52:32;17.80;;;12.30;;
4001;SDS011;2015;48.670;9.060;2022-10-19T08:55:07;13.97;;;11.77;;
4001;SDS011;2015;48.670;9.060;2022-10-19T08:58:02;17.70;;;11.90;;
4001;SDS011;2015;48.670;9.060;2022-10-19T09:00:54;13.97;;;11.33;;
4001;SDS011;2015;48.670;9.060;2022-10-19T09:03:41;15.63;;;11.80;;
4001;SDS011;2015;48.670;9.060;2022-10-19T09:07:13;12.10;;;10.20;;
4001;SDS011;2015;48.670;9.060;2022-10-19T09:09:40;17.50;;;12.90;;
4001;SDS011;2015;48.670;9.060;2022-10-19T09:12:15;14.33;;;10.60;;
4001;SDS011;2015;48.670;9.060;2022-10-19T09:14:52;16.30;;;12.07;;
4001;SDS011;2015;48.670;9.060;2022-10-19T09:17:29;15.70;;;11.13;;
4001;SDS011;2015;48.670;9.060;2022-10-19T09:20:45;18.27;;;12.00;;
4001;SDS011;2015;48.670;9.060;2022-10-19T09:23:03;14.20;;;11.23;;
4001;SDS011;2015;48.670;9.060;2022-10-19T09:25:43;15.30;;;11.23;;
4001;SDS011;2015;48.670;9.060;2022-10-19T09:28:22;18.37;;;12.00;;
4001;SDS011;2015;48.670;9.060;2022-10-19T09:31:21;16.50;;;12.27;;
4001;SDS011;2015;48.670;9.060;2022-10-19T09:34:01;20.80;;;12.03;;
4001;SDS011;2015;48.670;9.060;2022-10-19T09:36:41;15.17;;;9.87;;
4001;SDS011;2015;48.670;9.060;2022-10-19T09:39:21;16.57;;;12.17;;
4001;SDS011;2015;48.670;9.060;2022-10-19T09:45:12;18.17;;;12.57;;
4001;SDS011;2015;48.670;9.060;2022-10-19T09:48:09;18.17;;;12.80;;
4001;SDS011;2015;48.670;9.060;2022-10-19T09:50:54;15.17;;;12.23;;
4001;SDS011;2015;48.670;9.060;2022-10-19T09:53:30;20.13;;;12.87;;
4001;SDS011;2015;48.670;9.060;2022-10-19T09:56:04;16.47;;;12.50;;
4001;SDS011;2015;48.670;9.060;2022-10-19T09:58:37;19.00;;;12.40;;
4001;SDS011;2015;48.670;9.060;2022-10-19T10:01:31;25.60;;;14.90;;
4001;SDS011;2015;48.670;9.060;2022-10-19T10:04:13;18.90;;;14.50;;
4001;SDS011;2015;48.670;9.060;2022-10-19T10:06:47;25.90;;;15.93;;
4001;SDS011;2015;48.670;9.060;2022-10-19T10:09:24;22.83;;;17.27;;
4001;SDS011;2015;48.670;9.060;2022-10-19T10:11:58;19.40;;;14.90;;
4001;SDS011;2015;48.670;9.060;2022-10-19T10:14:38;22.23;;;15.20;;
4001;SDS011;2015;48.670;9.060;2022-10-19T10:17:15;18.10;;;12.97;;
4001;SDS011;2015;48.670;9.060;2022-10-19T10:22:29;19.83;;;14.50;;
4001;SDS011;2015;48.670;9.060;2022-10-19T10:25:15;18.03;;;14.30;;
4001;SDS011;2015;48.670;9.060;2022-10-19T10:27:53;17.10;;;12.87;;
4001;SDS011;2015;48.670;9.060;2022-10-19T10:30:29;18.10;;;12.77;;
4001;SDS011;2015;48.670;9.060;2022-10-19T10:33:05;16.27;;;12.40;;
4001;SDS011;2015;48.670;9.060;2022-10-19T10:36:00;11.57;;;9.83;;
4001;SDS011;2015;48.670;9.060;2022-10-19T10:38:41;12.93;;;9.50;;
4001;SDS011;2015;48.670;9.060;2022-10-19T10:41:18;14.50;;;9.60;;
4001;SDS011;2015;48.670;9.060;2022-10-19T10:44:04;10.50;;;9.40;;
4001;SDS011;2015;48.670;9.060;2022-10-19T10:46:45;8.97;;;8.03;;
4001;SDS011;2015;48.670;9.060;2022-10-19T10:49:34;9.50;;;8.60;;
4001;SDS011;2015;48.670;9.060;2022-10-19T10:52:14;8.23;;;7.53;;
4001;SDS011;2015;48.670;9.060;2022-10-19T10:54:59;9.53;;;8.57;;
4001;SDS011;2015;48.670;9.060;2022-10-19T10:57:40;8.50;;;7.50;;
4001;SDS011;2015;48.670;9.060;2022-10-19T11:00:20;7.97;;;7.37;;
4001;SDS011;2015;48.670;9.060;2022-10-19T11:02:58;7.97;;;7.30;;
4001;SDS011;2015;48.670;9.060;2022-10-19T11:06:06;7.30;;;6.70;;
4001;SDS011;2015;48.670;9.060;2022-10-19T11:08:50;7.82;;;7.03;;
4001;SDS011;2015;48.670;9.060;2022-10-19T11:11:29;7.70;;;6.80;;
4001;SDS011;2015;48.670;9.060;2022-10-19T11:17:02;7.60;;;6.90;;
4001;SDS011;2015;48.670;9.060;2022-10-19T11:19:43;5.17;;;4.67;;
4001;SDS011;2015;48.670;9.060;2022-10-19T11:30:40;5.80;;;5.30;;
4001;SDS011;2015;48.670;9.060;2022-10-19T11:33:46;5.80;;;4.47;;
4001;SDS011;2015;48.670;9.060;2022-10-19T11:45:15;4.90;;;4.60;;
4001;SDS011;2015;48.670;9.060;2022-10-19T12:00:15;6.33;;;4.83;;
4001;SDS011;2015;48.670;9.060;2022-10-19T12:14:41;5.17;;;4.73;;
4001;SDS011;2015;48.670;9.060;2022-10-19T12:17:22;5.67;;;5.17;;
4001;SDS011;2015;48.670;9.060;2022-10-19T12:20:03;5.80;;;4.73;;
4001;SDS011;2015;48.670;9.060;2022-10-19T12:22:39;5.90;;;5.40;;
4001;SDS011;2015;48.670;9.060;2022-10-19T12:25:12;6.33;;;5.83;;
4001;SDS011;2015;48.670;9.060;2022-10-19T12:27:46;6.77;;;6.10;;
4001;SDS011;2015;48.670;9.060;2022-10-19T12:30:21;7.05;;;6.40;;
4001;SDS011;2015;48.670;9.060;2022-10-19T12:41:58;7.83;;;6.93;;
4001;SDS011;2015;48.670;9.060;2022-10-19T12:47:06;10.80;;;7.80;;
4001;SDS011;2015;48.670;9.060;2022-10-19T12:55:32;8.40;;;6.40;;
4001;SDS011;2015;48.670;9.060;2022-10-19T12:58:05;9.23;;;7.38;;
4001;SDS011;2015;48.670;9.060;2022-10-19T13:00:57;12.07;;;7.57;;
4001;SDS011;2015;48.670;9.060;2022-10-19T13:03:50;10.33;;;8.07;;
4001;SDS011;2015;48.670;9.060;2022-10-19T13:06:36;11.10;;;8.27;;
4001;SDS011;2015;48.670;9.060;2022-10-19T13:09:23;10.53;;;9.13;;
4001;SDS011;2015;48.670;9.060;2022-10-19T13:14:56;11.70;;;8.40;;
4001;SDS011;2015;48.670;9.060;2022-10-19T13:22:50;16.00;;;8.67;;
4001;SDS011;2015;48.670;9.060;2022-10-19T13:25:41;10.83;;;8.30;;
4001;SDS011;2015;48.670;9.060;2022-10-19T13:46:39;10.63;;;9.50;;
4001;SDS011;2015;48.670;9.060;2022-10-19T14:03:44;8.67;;;7.90;;
4001;SDS011;2015;48.670;9.060;2022-10-19T14:12:00;9.10;;;7.63;;
4001;SDS011;2015;48.670;9.060;2022-10-19T14:14:42;10.70;;;8.50;;
4001;SDS011;2015;48.670;9.060;2022-10-19T14:17:19;10.43;;;9.53;;
4001;SDS011;2015;48.670;9.060;2022-10-19T14:19:55;9.27;;;8.27;;
4001;SDS011;2015;48.670;9.060;2022-10-19T14:22:33;8.87;;;8.00;;
4001;SDS011;2015;48.670;9.060;2022-10-19T14:27:44;11.20;;;8.10;;
4001;SDS011;2015;48.670;9.060;2022-10-19T14:32:57;11.97;;;8.20;;
4001;SDS011;2015;48.670;9.060;2022-10-19T14:35:33;9.20;;;7.70;;
4001;SDS011;2015;48.670;9.060;2022-10-19T14:38:19;9.30;;;8.53;;
4001;SDS011;2015;48.670;9.060;2022-10-19T14:43:59;10.90;;;8.80;;
4001;SDS011;2015;48.670;9.060;2022-10-19T14:46:33;8.37;;;7.57;;
4001;SDS011;2015;48.670;9.060;2022-10-19T14:49:05;8.80;;;7.90;;
4001;SDS011;2015;48.670;9.060;2022-10-19T14:51:45;8.60;;;7.73;;
4001;SDS011;2015;48.670;9.060;2022-10-19T14:57:10;9.20;;;8.40;;
4001;SDS011;2015;48.670;9.060;2022-10-19T14:59:46;8.53;;;7.27;;
4001;SDS011;2015;48.670;9.060;2022-10-19T15:02:20;8.20;;;7.40;;
4001;SDS011;2015;48.670;9.060;2022-10-19T15:04:53;9.03;;;8.13;;
4001;SDS011;2015;48.670;9.060;2022-10-19T15:10:00;7.90;;;7.20;;
4001;SDS011;2015;48.670;9.060;2022-10-19T15:12:38;7.77;;;7.07;;
4001;SDS011;2015;48.670;9.060;2022-10-19T15:15:21;10.50;;;9.40;;
4001;SDS011;2015;48.670;9.060;2022-10-19T15:20:38;10.20;;;7.93;;
4001;SDS011;2015;48.670;9.060;2022-10-19T15:23:37;9.02;;;8.10;;
4001;SDS011;2015;48.670;9.060;2022-10-19T15:26:36;8.77;;;7.93;;
4001;SDS011;2015;48.670;9.060;2022-10-19T15:29:07;10.03;;;9.03;;
4001;SDS011;2015;48.670;9.060;2022-10-19T15:31:49;11.63;;;9.43;;
4001;SDS011;2015;48.670;9.060;2022-10-19T15:34:29;9.83;;;8.23;;
4001;SDS011;2015;48.670;9.060;2022-10-19T15:37:01;9.40;;;8.60;;
4001;SDS011;2015;48.670;9.060;2022-10-19T15:39:33;9.30;;;8.40;;
4001;SDS011;2015;48.670;9.060;2022-10-19T15:42:33;9.00;;;8.10;;
4001;SDS011;2015;48.670;9.060;2022-10-19T15:50:44;11.53;;;9.17;;
4001;SDS011;2015;48.670;9.060;2022-10-19T15:53:18;9.33;;;8.40;;
4001;SDS011;2015;48.670;9.060;2022-10-19T15:55:51;11.87;;;9.60;;
4001;SDS011;2015;48.670;9.060;2022-10-19T15:58:23;10.40;;;9.27;;
4001;SDS011;2015;48.670;9.060;2022-10-19T16:00:55;9.83;;;8.83;;
4001;SDS011;2015;48.670;9.060;2022-10-19T16:03:26;9.40;;;8.37;;
4001;SDS011;2015;48.670;9.060;2022-10-19T16:05:58;9.47;;;8.57;;
4001;SDS011;2015;48.670;9.060;2022-10-19T16:08:30;9.43;;;8.53;;
4001;SDS011;2015;48.670;9.060;2022-10-19T16:11:02;11.13;;;9.00;;
4001;SDS011;2015;48.670;9.060;2022-10-19T16:13:34;9.70;;;8.50;;
4001;SDS011;2015;48.670;9.060;2022-10-19T16:16:06;11.37;;;9.90;;
4001;SDS011;2015;48.670;9.060;2022-10-19T16:18:42;10.87;;;9.80;;
4001;SDS011;2015;48.670;9.060;2022-10-19T16:21:14;11.10;;;7.60;;
4001;SDS011;2015;48.670;9.060;2022-10-19T16:23:46;10.33;;;8.60;;
4001;SDS011;2015;48.670;9.060;2022-10-19T16:26:18;9.80;;;8.70;;
4001;SDS011;2015;48.670;9.060;2022-10-19T16:28:51;11.57;;;9.47;;
4001;SDS011;2015;48.670;9.060;2022-10-19T16:31:26;11.93;;;8.60;;
4001;SDS011;2015;48.670;9.060;2022-10-19T16:33:58;15.53;;;7.90;;
4001;SDS011;2015;48.670;9.060;2022-10-19T16:36:30;11.30;;;8.60;;
4001;SDS011;2015;48.670;9.060;2022-10-19T16:39:01;17.93;;;8.47;;
4001;SDS011;2015;48.670;9.060;2022-10-19T16:41:35;8.93;;;6.90;;
4001;SDS011;2015;48.670;9.060;2022-10-19T16:44:11;20.30;;;8.37;;
4001;SDS011;2015;48.670;9.060;2022-10-19T16:46:43;9.30;;;7.70;;
4001;SDS011;2015;48.670;9.060;2022-10-19T16:49:15;8.73;;;7.80;;
4001;SDS011;2015;48.670;9.060;2022-10-19T16:51:47;9.20;;;7.80;;
4001;SDS011;2015;48.670;9.060;2022-10-19T16:54:23;9.13;;;7.87;;
4001;SDS011;2015;48.670;9.060;2022-10-19T16:56:57;18.37;;;8.90;;
4001;SDS011;2015;48.670;9.060;2022-10-19T16:59:28;8.50;;;7.80;;
4001;SDS011;2015;48.670;9.060;2022-10-19T17:02:00;13.83;;;8.10;;
4001;SDS011;2015;48.670;9.060;2022-10-19T17:04:32;13.10;;;8.40;;
4001;SDS011;2015;48.670;9.060;2022-10-19T17:07:04;11.00;;;8.37;;
4001;SDS011;2015;48.670;9.060;2022-10-19T17:09:36;10.87;;;7.83;;
4001;SDS011;2015;48.670;9.060;2022-10-19T17:12:12;14.23;;;8.17;;
4001;SDS011;2015;48.670;9.060;2022-10-19T17:14:44;10.17;;;8.17;;
4001;SDS011;2015;48.670;9.060;2022-10-19T17:17:16;11.33;;;7.90;;
4001;SDS011;2015;48.670;9.060;2022-10-19T17:19:48;15.50;;;9.60;;
4001;SDS011;2015;48.670;9.060;2022-10-19T17:22:20;12.47;;;9.20;;
4001;SDS011;2015;48.670;9.060;2022-10-19T17:24:51;15.97;;;9.87;;
4001;SDS011;2015;48.670;9.060;2022-10-19T17:27:25;11.63;;;8.67;;
4001;SDS011;2015;48.670;9.060;2022-10-19T17:29:58;10.93;;;9.30;;
4001;SDS011;2015;48.670;9.060;2022-10-19T17:32:29;13.20;;;9.90;;
4001;SDS011;2015;48.670;9.060;2022-10-19T17:35:01;23.73;;;9.83;;
4001;SDS011;2015;48.670;9.060;2022-10-19T17:37:33;15.53;;;11.27;;
4001;SDS011;2015;48.670;9.060;2022-10-19T17:40:05;10.53;;;8.97;;
4001;SDS011;2015;48.670;9.060;2022-10-19T17:42:38;10.30;;;8.33;;
4001;SDS011;2015;48.670;9.060;2022-10-19T17:45:10;10.83;;;8.63;;
4001;SDS011;2015;48.670;9.060;2022-10-19T17:47:41;14.47;;;10.20;;
4001;SDS011;2015;48.670;9.060;2022-10-19T17:50:13;12.03;;;9.30;;
4001;SDS011;2015;48.670;9.060;2022-10-19T17:52:45;11.33;;;9.50;;
4001;SDS011;2015;48.670;9.060;2022-10-19T17:55:17;19.47;;;9.20;;
4001;SDS011;2015;48.670;9.060;2022-10-19T17:57:48;13.03;;;8.97;;
4001;SDS011;2015;48.670;9.060;2022-10-19T18:00:20;9.70;;;8.47;;
4001;SDS011;2015;48.670;9.060;2022-10-19T18:02:52;10.27;;;9.10;;
4001;SDS011;2015;48.670;9.060;2022-10-19T18:05:24;14.03;;;11.27;;
4001;SDS011;2015;48.670;9.060;2022-10-19T18:07:56;15.77;;;10.57;;
4001;SDS011;2015;48.670;9.060;2022-10-19T18:10:27;18.90;;;11.10;;
4001;SDS011;2015;48.670;9.060;2022-10-19T18:12:59;13.07;;;10.43;;
4001;SDS011;2015;48.670;9.060;2022-10-19T18:15:31;15.60;;;12.27;;
4001;SDS011;2015;48.670;9.060;2022-10-19T18:18:03;11.20;;;10.00;;
4001;SDS011;2015;48.670;9.060;2022-10-19T18:20:37;23.03;;;10.80;;
4001;SDS011;2015;48.670;9.060;2022-10-19T18:23:09;12.80;;;10.53;;
4001;SDS011;2015;48.670;9.060;2022-10-19T18:25:41;14.70;;;9.70;;
4001;SDS011;2015;48.670;9.060;2022-10-19T18:28:24;10.87;;;8.87;;
4001;SDS011;2015;48.670;9.060;2022-10-19T18:31:03;17.37;;;9.20;;
4001;SDS011;2015;48.670;9.060;2022-10-19T18:33:36;11.47;;;9.17;;
4001;SDS011;2015;48.670;9.060;2022-10-19T18:36:08;12.77;;;10.17;;
4001;SDS011;2015;48.670;9.060;2022-10-19T18:38:41;14.53;;;11.30;;
4001;SDS011;2015;48.670;9.060;2022-10-19T18:41:12;14.87;;;13.30;;
4001;SDS011;2015;48.670;9.060;2022-10-19T18:43:50;15.83;;;13.20;;
4001;SDS011;2015;48.670;9.060;2022-10-19T18:46:24;15.10;;;12.30;;
4001;SDS011;2015;48.670;9.060;2022-10-19T18:48:56;14.23;;;12.80;;
4001;SDS011;2015;48.670;9.060;2022-10-19T18:51:29;14.30;;;12.80;;
4001;SDS011;2015;48.670;9.060;2022-10-19T18:54:02;13.30;;;11.83;;
4001;SDS011;2015;48.670;9.060;2022-10-19T18:56:34;12.73;;;11.53;;
4001;SDS011;2015;48.670;9.060;2022-10-19T18:59:08;13.20;;;11.83;;
4001;SDS011;2015;48.670;9.060;2022-10-19T19:01:40;13.83;;;12.17;;
4001;SDS011;2015;48.670;9.060;2022-10-19T19:04:12;18.27;;;14.07;;
4001;SDS011;2015;48.670;9.060;2022-10-19T19:06:44;16.47;;;14.70;;
4001;SDS011;2015;48.670;9.060;2022-10-19T19:09:15;16.60;;;14.15;;
4001;SDS011;2015;48.670;9.060;2022-10-19T19:11:48;15.83;;;14.23;;
4001;SDS011;2015;48.670;9.060;2022-10-19T19:14:21;14.03;;;12.17;;
4001;SDS011;2015;48.670;9.060;2022-10-19T19:16:54;12.90;;;11.60;;
4001;SDS011;2015;48.670;9.060;2022-10-19T19:19:25;13.30;;;11.67;;
4001;SDS011;2015;48.670;9.060;2022-10-19T19:21:59;13.10;;;11.90;;
4001;SDS011;2015;48.670;9.060;2022-10-19T19:24:39;16.90;;;13.30;;
4001;SDS011;2015;48.670;9.060;2022-10-19T19:27:12;13.50;;;12.10;;
4001;SDS011;2015;48.670;9.060;2022-10-19T19:29:43;12.57;;;11.33;;
4001;SDS011;2015;48.670;9.060;2022-10-19T19:32:15;13.23;;;12.00;;
4001;SDS011;2015;48.670;9.060;2022-10-19T19:34:47;11.80;;;10.50;;
4001;SDS011;2015;48.670;9.060;2022-10-19T19:37:24;13.80;;;11.50;;
4001;SDS011;2015;48.670;9.060;2022-10-19T19:39:56;12.40;;;10.40;;
4001;SDS011;2015;48.670;9.060;2022-10-19T19:42:28;12.40;;;11.30;;
4001;SDS011;2015;48.670;9.060;2022-10-19T19:44:59;14.03;;;12.57;;
4001;SDS011;2015;48.670;9.060;2022-10-19T19:47:31;11.27;;;10.13;;
4001;SDS011;2015;48.670;9.060;2022-10-19T19:50:04;13.23;;;11.87;;
4001;SDS011;2015;48.670;9.060;2022-10-19T19:52:36;13.90;;;11.40;;
4001;SDS011;2015;48.670;9.060;2022-10-19T19:55:10;12.87;;;11.50;;
4001;SDS011;2015;48.670;9.060;2022-10-19T19:57:42;12.20;;;10.53;;
4001;SDS011;2015;48.670;9.060;2022-10-19T20:00:15;12.00;;;10.70;;
4001;SDS011;2015;48.670;9.060;2022-10-19T20:02:51;10.70;;;9.60;;
4001;SDS011;2015;48.670;9.060;2022-10-19T20:05:26;11.90;;;9.87;;
4001;SDS011;2015;48.670;9.060;2022-10-19T20:07:58;13.00;;;9.23;;
4001;SDS011;2015;48.670;9.060;2022-10-19T20:10:31;11.80;;;9.27;;
4001;SDS011;2015;48.670;9.060;2022-10-19T20:13:02;13.23;;;9.80;;
4001;SDS011;2015;48.670;9.060;2022-10-19T20:15:39;13.23;;;10.33;;
4001;SDS011;2015;48.670;9.060;2022-10-19T20:18:11;11.43;;;9.57;;
4001;SDS011;2015;48.670;9.060;2022-10-19T20:20:43;11.20;;;10.10;;
4001;SDS011;2015;48.670;9.060;2022-10-19T20:23:14;13.77;;;10.10;;
4001;SDS011;2015;48.670;9.060;2022-10-19T20:25:46;14.03;;;10.20;;
4001;SDS011;2015;48.670;9.060;2022-10-19T20:28:18;11.43;;;10.33;;
4001;SDS011;2015;48.670;9.060;2022-10-19T20:30:59;14.47;;;9.70;;
4001;SDS011;2015;48.670;9.060;2022-10-19T20:33:39;12.97;;;10.90;;
4001;SDS011;2015;48.670;9.060;2022-10-19T20:36:13;19.30;;;11.33;;
4001;SDS011;2015;48.670;9.060;2022-10-19T20:38:51;21.30;;;12.60;;
4001;SDS011;2015;48.670;9.060;2022-10-19T20:41:25;15.83;;;10.50;;
4001;SDS011;2015;48.670;9.060;2022-10-19T20:43:58;12.27;;;11.00;;
4001;SDS011;2015;48.670;9.060;2022-10-19T20:46:30;15.53;;;11.10;;
4001;SDS011;2015;48.670;9.060;2022-10-19T20:49:02;15.50;;;11.53;;
4001;SDS011;2015;48.670;9.060;2022-10-19T20:51:34;21.73;;;13.50;;
4001;SDS011;2015;48.670;9.060;2022-10-19T20:54:10;17.93;;;13.60;;
4001;SDS011;2015;48.670;9.060;2022-10-19T20:56:42;22.13;;;12.33;;
4001;SDS011;2015;48.670;9.060;2022-10-19T20:59:15;17.83;;;12.60;;
4001;SDS011;2015;48.670;9.060;2022-10-19T21:01:49;15.33;;;11.10;;
4001;SDS011;2015;48.670;9.060;2022-10-19T21:04:21;22.07;;;13.80;;
4001;SDS011;2015;48.670;9.060;2022-10-19T21:06:54;14.70;;;10.87;;
4001;SDS011;2015;48.670;9.060;2022-10-19T21:09:26;17.93;;;11.13;;
4001;SDS011;2015;48.670;9.060;2022-10-19T21:11:57;13.93;;;12.00;;
4001;SDS011;2015;48.670;9.060;2022-10-19T21:14:31;17.13;;;11.37;;
4001;SDS011;2015;48.670;9.060;2022-10-19T21:17:03;18.07;;;14.13;;
4001;SDS011;2015;48.670;9.060;2022-10-19T21:19:34;18.80;;;11.90;;
4001;SDS011;2015;48.670;9.060;2022-10-19T21:22:06;18.53;;;11.10;;
4001;SDS011;2015;48.670;9.060;2022-10-19T21:24:38;17.43;;;11.87;;
4001;SDS011;2015;48.670;9.060;2022-10-19T21:27:10;12.13;;;10.53;;
4001;SDS011;2015;48.670;9.060;2022-10-19T21:29:44;15.57;;;11.10;;
4001;SDS011;2015;48.670;9.060;2022-10-19T21:32:16;23.60;;;11.70;;
4001;SDS011;2015;48.670;9.060;2022-10-19T21:34:48;14.47;;;11.40;;
4001;SDS011;2015;48.670;9.060;2022-10-19T21:37:20;13.60;;;12.30;;
4001;SDS011;2015;48.670;9.060;2022-10-19T21:39:52;18.77;;;11.93;;
4001;SDS011;2015;48.670;9.060;2022-10-19T21:42:24;14.57;;;11.13;;
4001;SDS011;2015;48.670;9.060;2022-10-19T21:44:55;14.80;;;11.83;;
4001;SDS011;2015;48.670;9.060;2022-10-19T21:47:47;15.67;;;11.97;;
4001;SDS011;2015;48.670;9.060;2022-10-19T21:50:19;23.43;;;11.97;;
4001;SDS011;2015;48.670;9.060;2022-10-19T21:52:50;15.30;;;11.50;;
4001;SDS011;2015;48.670;9.060;2022-10-19T21:55:22;18.43;;;12.47;;
4001;SDS011;2015;48.670;9.060;2022-10-19T21:57:55;17.70;;;12.77;;
4001;SDS011;2015;48.670;9.060;2022-10-19T22:00:26;21.07;;;12.67;;
4001;SDS011;2015;48.670;9.060;2022-10-19T22:02:59;19.67;;;13.40;;